sensor_id;sensor_type;location;lat;lon;timestamp;pressure;altitude;pressure_sealevel;temperature;humidity
44839;BME280;30576;42.098;24.876;2023-02-19T00:01:24;99921.19;;;10.83;46.22
44839;BME280;30576;42.098;24.876;2023-02-19T00:03:55;99928.66;;;10.47;47.39
44839;BME280;30576;42.098;24.876;2023-02-19T00:06:22;99934.94;;;10.36;47.91
44839;BME280;30576;42.098;24.876;2023-02-19T00:08:56;99900.88;;;10.13;48.05
44839;BME280;30576;42.098;24.876;2023-02-19T00:11:28;99930.59;;;10.28;47.92
44839;BME280;30576;42.098;24.876;2023-02-19T00:13:55;99905.50;;;9.83;48.04
44839;BME280;30576;42.098;24.876;2023-02-19T00:16:37;99881.84;;;9.79;48.17
44839;BME280;30576;42.098;24.876;2023-02-19T00:19:09;99911.53;;;9.99;48.52
44839;BME280;30576;42.098;24.876;2023-02-19T00:21:36;99867.97;;;9.60;48.52
44839;BME280;30576;42.098;24.876;2023-02-19T00:24:02;99905.31;;;10.05;47.59
44839;BME280;30576;42.098;24.876;2023-02-19T00:26:28;99871.78;;;10.23;47.39
44839;BME280;30576;42.098;24.876;2023-02-19T00:28:54;99897.91;;;10.47;47.08
44839;BME280;30576;42.098;24.876;2023-02-19T00:31:24;99905.69;;;10.55;46.32
44839;BME280;30576;42.098;24.876;2023-02-19T00:33:52;99894.91;;;10.75;45.81
44839;BME280;30576;42.098;24.876;2023-02-19T00:36:19;99920.09;;;11.02;45.38
44839;BME280;30576;42.098;24.876;2023-02-19T00:38:45;99854.53;;;10.70;46.01
44839;BME280;30576;42.098;24.876;2023-02-19T00:41:15;99880.84;;;10.76;45.70
44839;BME280;30576;42.098;24.876;2023-02-19T00:43:54;99878.13;;;10.81;45.73
44839;BME280;30576;42.098;24.876;2023-02-19T00:46:26;99880.06;;;10.68;46.30
44839;BME280;30576;42.098;24.876;2023-02-19T00:48:52;99826.81;;;10.38;46.32
44839;BME280;30576;42.098;24.876;2023-02-19T00:51:20;99864.34;;;10.60;46.24
44839;BME280;30576;42.098;24.876;2023-02-19T00:53:48;99839.13;;;10.36;46.76
44839;BME280;30576;42.098;24.876;2023-02-19T00:56:14;99862.06;;;10.26;47.08
44839;BME280;30576;42.098;24.876;2023-02-19T00:58:39;99869.78;;;10.45;46.55
44839;BME280;30576;42.098;24.876;2023-02-19T01:01:08;99871.78;;;10.23;47.26
44839;BME280;30576;42.098;24.876;2023-02-19T01:03:34;99872.56;;;10.29;46.98
44839;BME280;30576;42.098;24.876;2023-02-19T01:06:00;99848.03;;;10.24;47.10
44839;BME280;30576;42.098;24.876;2023-02-19T01:08:36;99869.09;;;10.27;47.01
44839;BME280;30576;42.098;24.876;2023-02-19T01:11:03;99847.47;;;9.93;48.06
44839;BME280;30576;42.098;24.876;2023-02-19T01:13:36;99827.34;;;9.85;47.87
44839;BME280;30576;42.098;24.876;2023-02-19T01:16:07;99844.56;;;10.17;47.53
44839;BME280;30576;42.098;24.876;2023-02-19T01:18:37;99810.50;;;9.99;48.07
44839;BME280;30576;42.098;24.876;2023-02-19T01:21:08;99854.19;;;10.23;47.53
44839;BME280;30576;42.098;24.876;2023-02-19T01:23:50;99846.47;;;10.04;47.73
44839;BME280;30576;42.098;24.876;2023-02-19T01:26:19;99836.97;;;9.86;47.87
44839;BME280;30576;42.098;24.876;2023-02-19T01:28:45;99830.00;;;9.82;48.45
44839;BME280;30576;42.098;24.876;2023-02-19T01:31:17;99831.03;;;9.66;48.61
44839;BME280;30576;42.098;24.876;2023-02-19T01:33:53;99848.88;;;9.31;50.52
44839;BME280;30576;42.098;24.876;2023-02-19T01:36:20;99801.66;;;9.11;50.52
44839;BME280;30576;42.098;24.876;2023-02-19T01:38:45;99863.06;;;9.10;51.56
44839;BME280;30576;42.098;24.876;2023-02-19T01:41:17;99877.94;;;9.14;50.99
44839;BME280;30576;42.098;24.876;2023-02-19T01:44:02;99835.00;;;9.06;50.74
44839;BME280;30576;42.098;24.876;2023-02-19T01:46:41;99850.16;;;8.61;52.88
44839;BME280;30576;42.098;24.876;2023-02-19T01:49:11;99872.84;;;8.85;53.05
44839;BME280;30576;42.098;24.876;2023-02-19T01:51:43;99867.63;;;8.77;52.51
44839;BME280;30576;42.098;24.876;2023-02-19T01:54:14;99857.88;;;8.96;52.30
44839;BME280;30576;42.098;24.876;2023-02-19T01:56:44;99832.50;;;8.83;52.38
44839;BME280;30576;42.098;24.876;2023-02-19T01:59:15;99850.13;;;8.70;53.22
44839;BME280;30576;42.098;24.876;2023-02-19T02:01:45;99820.22;;;8.90;52.90
44839;BME280;30576;42.098;24.876;2023-02-19T02:04:16;99808.13;;;8.52;53.52
44839;BME280;30576;42.098;24.876;2023-02-19T02:06:49;99799.25;;;8.77;53.30
44839;BME280;30576;42.098;24.876;2023-02-19T02:09:17;99823.84;;;8.69;53.75
44839;BME280;30576;42.098;24.876;2023-02-19T02:12:05;99817.53;;;8.96;52.59
44839;BME280;30576;42.098;24.876;2023-02-19T02:14:36;99842.91;;;9.03;52.67
44839;BME280;30576;42.098;24.876;2023-02-19T02:17:27;99856.03;;;9.08;52.92
44839;BME280;30576;42.098;24.876;2023-02-19T02:25:32;99849.91;;;9.07;52.55
44839;BME280;30576;42.098;24.876;2023-02-19T02:31:11;99816.63;;;8.97;52.44
44839;BME280;30576;42.098;24.876;2023-02-19T02:33:56;99861.19;;;9.26;52.03
44839;BME280;30576;42.098;24.876;2023-02-19T02:36:30;99834.09;;;9.12;51.21
44839;BME280;30576;42.098;24.876;2023-02-19T02:38:59;99864.66;;;9.36;51.10
44839;BME280;30576;42.098;24.876;2023-02-19T02:41:27;99852.13;;;9.64;49.82
44839;BME280;30576;42.098;24.876;2023-02-19T02:43:52;99863.28;;;9.91;49.57
44839;BME280;30576;42.098;24.876;2023-02-19T02:46:19;99871.06;;;10.03;48.95
44839;BME280;30576;42.098;24.876;2023-02-19T02:48:51;99829.28;;;9.63;48.90
44839;BME280;30576;42.098;24.876;2023-02-19T02:51:42;99815.19;;;9.69;49.15
44839;BME280;30576;42.098;24.876;2023-02-19T02:54:23;99833.28;;;10.04;48.47
44839;BME280;30576;42.098;24.876;2023-02-19T02:57:10;99867.59;;;10.00;49.12
44839;BME280;30576;42.098;24.876;2023-02-19T02:59:42;99869.75;;;9.58;49.75
44839;BME280;30576;42.098;24.876;2023-02-19T03:02:13;99825.31;;;9.13;50.07
44839;BME280;30576;42.098;24.876;2023-02-19T03:05:01;99846.56;;;8.84;51.97
44839;BME280;30576;42.098;24.876;2023-02-19T03:08:54;99863.13;;;9.01;51.69
44839;BME280;30576;42.098;24.876;2023-02-19T03:11:04;99885.91;;;9.07;52.13
44839;BME280;30576;42.098;24.876;2023-02-19T03:14:24;99847.38;;;8.92;52.47
44839;BME280;30576;42.098;24.876;2023-02-19T03:17:21;99884.16;;;9.03;51.95
44839;BME280;30576;42.098;24.876;2023-02-19T03:20:13;99903.41;;;9.08;52.00
44839;BME280;30576;42.098;24.876;2023-02-19T03:22:45;99885.75;;;9.28;52.11
44839;BME280;30576;42.098;24.876;2023-02-19T03:25:15;99892.66;;;9.42;51.75
44839;BME280;30576;42.098;24.876;2023-02-19T03:28:03;99905.91;;;9.31;51.79
44839;BME280;30576;42.098;24.876;2023-02-19T03:30:35;99909.44;;;9.31;51.55
44839;BME280;30576;42.098;24.876;2023-02-19T03:33:13;99911.09;;;9.42;51.72
44839;BME280;30576;42.098;24.876;2023-02-19T03:35:54;99904.09;;;9.42;51.61
44839;BME280;30576;42.098;24.876;2023-02-19T03:38:25;99883.16;;;9.24;51.64
44839;BME280;30576;42.098;24.876;2023-02-19T03:44:43;99870.22;;;8.84;52.53
44839;BME280;30576;42.098;24.876;2023-02-19T03:49:50;99897.38;;;8.90;52.57
44839;BME280;30576;42.098;24.876;2023-02-19T03:55:09;99872.06;;;8.60;52.97
44839;BME280;30576;42.098;24.876;2023-02-19T03:57:38;99897.50;;;8.63;53.45
44839;BME280;30576;42.098;24.876;2023-02-19T04:00:16;99899.22;;;8.71;53.04
44839;BME280;30576;42.098;24.876;2023-02-19T04:05:43;99884.22;;;8.89;52.03
44839;BME280;30576;42.098;24.876;2023-02-19T04:08:18;99905.03;;;9.34;50.91
44839;BME280;30576;42.098;24.876;2023-02-19T04:10:50;99893.66;;;9.30;51.03
44839;BME280;30576;42.098;24.876;2023-02-19T04:13:26;99887.56;;;9.16;51.17
44839;BME280;30576;42.098;24.876;2023-02-19T04:15:56;99885.19;;;8.69;51.78
44839;BME280;30576;42.098;24.876;2023-02-19T04:18:28;99900.25;;;7.95;53.94
44839;BME280;30576;42.098;24.876;2023-02-19T04:20:56;99910.75;;;7.50;54.69
44839;BME280;30576;42.098;24.876;2023-02-19T04:23:27;99902.81;;;7.05;55.58
44839;BME280;30576;42.098;24.876;2023-02-19T04:25:57;99904.56;;;7.08;55.87
44839;BME280;30576;42.098;24.876;2023-02-19T04:28:24;99950.13;;;7.44;56.05
44839;BME280;30576;42.098;24.876;2023-02-19T04:30:49;99958.91;;;7.74;55.59
44839;BME280;30576;42.098;24.876;2023-02-19T04:33:15;99957.19;;;8.03;55.13
44839;BME280;30576;42.098;24.876;2023-02-19T04:35:40;99945.72;;;8.35;53.60
44839;BME280;30576;42.098;24.876;2023-02-19T04:38:06;99945.59;;;8.91;51.64
44839;BME280;30576;42.098;24.876;2023-02-19T04:40:31;99931.34;;;9.35;50.99
44839;BME280;30576;42.098;24.876;2023-02-19T04:42:56;99943.44;;;9.65;49.29
44839;BME280;30576;42.098;24.876;2023-02-19T04:45:27;99918.03;;;9.55;48.88
44839;BME280;30576;42.098;24.876;2023-02-19T04:47:56;99926.53;;;9.90;48.41
44839;BME280;30576;42.098;24.876;2023-02-19T04:50:24;99916.91;;;9.89;48.54
44839;BME280;30576;42.098;24.876;2023-02-19T04:52:53;99950.16;;;10.00;48.54
44839;BME280;30576;42.098;24.876;2023-02-19T04:55:18;99959.69;;;10.17;47.45
44839;BME280;30576;42.098;24.876;2023-02-19T04:57:43;99957.78;;;10.36;46.67
44839;BME280;30576;42.098;24.876;2023-02-19T05:00:09;99936.69;;;10.34;46.11
44839;BME280;30576;42.098;24.876;2023-02-19T05:02:35;99961.09;;;10.55;46.20
44839;BME280;30576;42.098;24.876;2023-02-19T05:05:00;99919.81;;;10.52;45.79
44839;BME280;30576;42.098;24.876;2023-02-19T05:07:25;99961.75;;;10.77;45.47
44839;BME280;30576;42.098;24.876;2023-02-19T05:09:51;99972.97;;;10.96;45.23
44839;BME280;30576;42.098;24.876;2023-02-19T05:12:16;99972.97;;;10.96;44.79
44839;BME280;30576;42.098;24.876;2023-02-19T05:14:42;99952.78;;;10.90;44.91
44839;BME280;30576;42.098;24.876;2023-02-19T05:17:07;99977.44;;;10.91;45.03
44839;BME280;30576;42.098;24.876;2023-02-19T05:19:32;99974.94;;;10.77;45.18
44839;BME280;30576;42.098;24.876;2023-02-19T05:21:58;99960.88;;;10.75;45.05
44839;BME280;30576;42.098;24.876;2023-02-19T05:24:23;99971.31;;;10.84;45.54
44839;BME280;30576;42.098;24.876;2023-02-19T05:26:49;99967.78;;;10.87;45.49
44839;BME280;30576;42.098;24.876;2023-02-19T05:29:14;99952.22;;;10.64;45.47
44839;BME280;30576;42.098;24.876;2023-02-19T05:31:40;99980.09;;;10.89;45.46
44839;BME280;30576;42.098;24.876;2023-02-19T05:34:05;99967.94;;;10.74;45.10
44839;BME280;30576;42.098;24.876;2023-02-19T05:36:31;99986.25;;;10.87;45.10
44839;BME280;30576;42.098;24.876;2023-02-19T05:38:57;99986.16;;;10.95;45.46
44839;BME280;30576;42.098;24.876;2023-02-19T05:41:26;99969.41;;;11.00;45.05
44839;BME280;30576;42.098;24.876;2023-02-19T05:43:52;99949.38;;;10.81;45.01
44839;BME280;30576;42.098;24.876;2023-02-19T05:46:18;99988.69;;;11.05;45.03
44839;BME280;30576;42.098;24.876;2023-02-19T05:48:44;100000.81;;;11.22;44.40
44839;BME280;30576;42.098;24.876;2023-02-19T05:51:14;99992.06;;;11.15;44.58
44839;BME280;30576;42.098;24.876;2023-02-19T05:53:40;99998.09;;;11.26;44.11
44839;BME280;30576;42.098;24.876;2023-02-19T05:56:31;100007.72;;;11.31;44.13
44839;BME280;30576;42.098;24.876;2023-02-19T05:58:58;100012.94;;;11.35;44.48
44839;BME280;30576;42.098;24.876;2023-02-19T06:01:26;99938.25;;;11.25;43.85
44839;BME280;30576;42.098;24.876;2023-02-19T06:03:52;100008.94;;;11.70;44.26
44839;BME280;30576;42.098;24.876;2023-02-19T06:06:18;100009.69;;;11.80;43.47
44839;BME280;30576;42.098;24.876;2023-02-19T06:08:44;100013.72;;;12.06;42.56
44839;BME280;30576;42.098;24.876;2023-02-19T06:11:09;100003.06;;;12.12;42.25
44839;BME280;30576;42.098;24.876;2023-02-19T06:13:34;100024.28;;;12.59;42.09
44839;BME280;30576;42.098;24.876;2023-02-19T06:16:03;100030.09;;;12.79;41.39
44839;BME280;30576;42.098;24.876;2023-02-19T06:18:29;100000.38;;;12.63;41.27
44839;BME280;30576;42.098;24.876;2023-02-19T06:20:59;100036.16;;;12.86;41.17
44839;BME280;30576;42.098;24.876;2023-02-19T06:23:27;100020.75;;;13.06;40.29
44839;BME280;30576;42.098;24.876;2023-02-19T06:25:52;100007.91;;;13.30;40.15
44839;BME280;30576;42.098;24.876;2023-02-19T06:28:17;100046.91;;;13.67;38.97
44839;BME280;30576;42.098;24.876;2023-02-19T06:30:43;100049.72;;;13.99;39.05
44839;BME280;30576;42.098;24.876;2023-02-19T06:33:08;100046.88;;;14.06;38.99
44839;BME280;30576;42.098;24.876;2023-02-19T06:35:35;100021.13;;;13.74;38.89
44839;BME280;30576;42.098;24.876;2023-02-19T06:38:00;100027.28;;;14.13;38.82
44839;BME280;30576;42.098;24.876;2023-02-19T06:40:25;100058.41;;;14.43;37.61
44839;BME280;30576;42.098;24.876;2023-02-19T06:42:51;100051.28;;;14.79;37.40
44839;BME280;30576;42.098;24.876;2023-02-19T06:45:16;100054.50;;;14.92;37.46
44839;BME280;30576;42.098;24.876;2023-02-19T06:47:41;100058.75;;;14.98;36.31
44839;BME280;30576;42.098;24.876;2023-02-19T06:50:07;100059.38;;;15.08;36.75
44839;BME280;30576;42.098;24.876;2023-02-19T06:52:32;100033.72;;;15.07;36.23
44839;BME280;30576;42.098;24.876;2023-02-19T06:54:58;100070.31;;;15.28;36.94
44839;BME280;30576;42.098;24.876;2023-02-19T06:57:23;100075.56;;;15.61;36.01
44839;BME280;30576;42.098;24.876;2023-02-19T06:59:48;100075.50;;;15.63;35.33
44839;BME280;30576;42.098;24.876;2023-02-19T07:02:14;100053.75;;;15.80;35.69
44839;BME280;30576;42.098;24.876;2023-02-19T07:04:39;100068.06;;;16.05;34.85
44839;BME280;30576;42.098;24.876;2023-02-19T07:07:04;100061.75;;;16.08;34.21
44839;BME280;30576;42.098;24.876;2023-02-19T07:09:30;100063.34;;;16.14;34.67
44839;BME280;30576;42.098;24.876;2023-02-19T07:11:55;100043.66;;;15.91;34.77
44839;BME280;30576;42.098;24.876;2023-02-19T07:14:22;100048.44;;;16.08;34.45
44839;BME280;30576;42.098;24.876;2023-02-19T07:16:47;100059.69;;;16.44;34.37
44839;BME280;30576;42.098;24.876;2023-02-19T07:19:14;100062.28;;;16.46;34.04
44839;BME280;30576;42.098;24.876;2023-02-19T07:21:40;100045.47;;;16.17;34.22
44839;BME280;30576;42.098;24.876;2023-02-19T07:24:07;100065.66;;;16.51;33.58
44839;BME280;30576;42.098;24.876;2023-02-19T07:26:33;100057.78;;;16.48;33.21
44839;BME280;30576;42.098;24.876;2023-02-19T07:28:59;100044.56;;;16.45;33.57
44839;BME280;30576;42.098;24.876;2023-02-19T07:31:24;100067.66;;;16.98;33.00
44839;BME280;30576;42.098;24.876;2023-02-19T07:33:50;100037.38;;;16.74;32.28
44839;BME280;30576;42.098;24.876;2023-02-19T07:36:17;100050.41;;;17.08;32.38
44839;BME280;30576;42.098;24.876;2023-02-19T07:38:44;100032.41;;;17.15;32.28
44839;BME280;30576;42.098;24.876;2023-02-19T07:41:17;100021.06;;;17.08;32.48
44839;BME280;30576;42.098;24.876;2023-02-19T07:43:42;100038.53;;;17.17;32.19
44839;BME280;30576;42.098;24.876;2023-02-19T07:46:12;99993.63;;;17.06;32.49
44839;BME280;30576;42.098;24.876;2023-02-19T07:48:39;100032.91;;;17.25;31.84
44839;BME280;30576;42.098;24.876;2023-02-19T07:51:07;100025.38;;;17.36;32.02
44839;BME280;30576;42.098;24.876;2023-02-19T07:53:41;100031.06;;;17.27;31.83
44839;BME280;30576;42.098;24.876;2023-02-19T07:56:07;100030.19;;;17.26;32.21
44839;BME280;30576;42.098;24.876;2023-02-19T07:58:35;99998.56;;;17.17;31.97
44839;BME280;30576;42.098;24.876;2023-02-19T08:01:22;100016.06;;;17.24;31.77
44839;BME280;30576;42.098;24.876;2023-02-19T08:04:06;100028.53;;;17.47;32.11
44839;BME280;30576;42.098;24.876;2023-02-19T08:06:31;100030.81;;;17.33;31.96
44839;BME280;30576;42.098;24.876;2023-02-19T08:09:01;100059.75;;;17.44;31.92
44839;BME280;30576;42.098;24.876;2023-02-19T08:11:27;100054.56;;;17.64;31.89
44839;BME280;30576;42.098;24.876;2023-02-19T08:14:11;100060.56;;;17.69;32.12
44839;BME280;30576;42.098;24.876;2023-02-19T08:16:56;100048.03;;;17.71;31.54
44839;BME280;30576;42.098;24.876;2023-02-19T08:19:59;100026.38;;;17.57;31.95
44839;BME280;30576;42.098;24.876;2023-02-19T08:22:25;100018.94;;;17.65;31.38
44839;BME280;30576;42.098;24.876;2023-02-19T08:24:56;100026.50;;;17.76;31.80
44839;BME280;30576;42.098;24.876;2023-02-19T08:27:26;99986.03;;;17.43;31.82
44839;BME280;30576;42.098;24.876;2023-02-19T08:29:58;99999.56;;;17.38;32.16
44839;BME280;30576;42.098;24.876;2023-02-19T08:32:23;100018.91;;;17.43;31.88
44839;BME280;30576;42.098;24.876;2023-02-19T08:34:48;100030.56;;;17.86;31.85
44839;BME280;30576;42.098;24.876;2023-02-19T08:37:14;99998.56;;;18.08;32.10
44839;BME280;30576;42.098;24.876;2023-02-19T08:39:39;100005.84;;;18.05;31.29
44839;BME280;30576;42.098;24.876;2023-02-19T08:42:05;100014.13;;;18.19;30.80
44839;BME280;30576;42.098;24.876;2023-02-19T08:44:31;99994.03;;;17.88;31.27
44839;BME280;30576;42.098;24.876;2023-02-19T08:46:59;100027.13;;;18.06;32.04
44839;BME280;30576;42.098;24.876;2023-02-19T08:49:25;99982.19;;;17.96;31.57
44839;BME280;30576;42.098;24.876;2023-02-19T08:51:51;100015.41;;;18.11;31.38
44839;BME280;30576;42.098;24.876;2023-02-19T08:54:17;100002.81;;;18.35;31.47
44839;BME280;30576;42.098;24.876;2023-02-19T08:56:42;99997.00;;;18.25;31.78
44839;BME280;30576;42.098;24.876;2023-02-19T08:59:08;99987.19;;;18.25;31.13
44839;BME280;30576;42.098;24.876;2023-02-19T09:01:33;100020.13;;;18.67;31.27
44839;BME280;30576;42.098;24.876;2023-02-19T09:03:59;99962.03;;;18.31;31.06
44839;BME280;30576;42.098;24.876;2023-02-19T09:06:24;100002.78;;;18.57;32.05
44839;BME280;30576;42.098;24.876;2023-02-19T09:08:50;99997.28;;;18.81;30.98
44839;BME280;30576;42.098;24.876;2023-02-19T09:11:16;99982.47;;;18.73;31.29
44839;BME280;30576;42.098;24.876;2023-02-19T09:13:42;100000.38;;;18.71;31.18
44839;BME280;30576;42.098;24.876;2023-02-19T09:16:08;99981.75;;;18.70;31.39
44839;BME280;30576;42.098;24.876;2023-02-19T09:18:34;99983.34;;;18.74;31.44
44839;BME280;30576;42.098;24.876;2023-02-19T09:21:03;99997.84;;;18.68;31.50
44839;BME280;30576;42.098;24.876;2023-02-19T09:23:32;99992.38;;;18.51;31.25
44839;BME280;30576;42.098;24.876;2023-02-19T09:26:01;99976.53;;;18.46;31.29
44839;BME280;30576;42.098;24.876;2023-02-19T09:28:31;99998.69;;;18.48;31.17
44839;BME280;30576;42.098;24.876;2023-02-19T09:30:56;99993.34;;;18.69;31.27
44839;BME280;30576;42.098;24.876;2023-02-19T09:33:22;99964.50;;;18.77;31.95
44839;BME280;30576;42.098;24.876;2023-02-19T09:35:47;99954.00;;;18.93;30.98
44839;BME280;30576;42.098;24.876;2023-02-19T09:38:13;99959.09;;;18.99;30.85
44839;BME280;30576;42.098;24.876;2023-02-19T09:40:38;99954.06;;;19.31;31.22
44839;BME280;30576;42.098;24.876;2023-02-19T09:43:13;99958.16;;;19.38;30.86
44839;BME280;30576;42.098;24.876;2023-02-19T09:45:40;99944.72;;;19.40;31.04
44839;BME280;30576;42.098;24.876;2023-02-19T09:48:07;99941.97;;;19.22;30.77
44839;BME280;30576;42.098;24.876;2023-02-19T09:50:41;99953.69;;;19.58;31.02
44839;BME280;30576;42.098;24.876;2023-02-19T09:53:21;99941.91;;;19.62;30.27
44839;BME280;30576;42.098;24.876;2023-02-19T09:55:49;99931.34;;;19.40;31.08
44839;BME280;30576;42.098;24.876;2023-02-19T09:58:33;99945.91;;;19.71;30.98
44839;BME280;30576;42.098;24.876;2023-02-19T10:01:03;99951.94;;;19.57;30.87
44839;BME280;30576;42.098;24.876;2023-02-19T10:03:32;99925.63;;;19.66;31.01
44839;BME280;30576;42.098;24.876;2023-02-19T10:06:03;99947.38;;;19.78;29.90
44839;BME280;30576;42.098;24.876;2023-02-19T10:08:32;99935.66;;;19.61;29.90
44839;BME280;30576;42.098;24.876;2023-02-19T10:10:59;99924.44;;;19.72;30.45
44839;BME280;30576;42.098;24.876;2023-02-19T10:13:36;99906.00;;;19.66;29.81
44839;BME280;30576;42.098;24.876;2023-02-19T10:16:08;99907.75;;;19.67;29.06
44839;BME280;30576;42.098;24.876;2023-02-19T10:18:41;99911.44;;;19.83;28.82
44839;BME280;30576;42.098;24.876;2023-02-19T10:21:11;99901.88;;;19.78;29.26
44839;BME280;30576;42.098;24.876;2023-02-19T10:23:39;99888.91;;;19.88;29.33
44839;BME280;30576;42.098;24.876;2023-02-19T10:26:05;99883.25;;;20.11;28.60
44839;BME280;30576;42.098;24.876;2023-02-19T10:28:35;99890.34;;;20.30;29.18
44839;BME280;30576;42.098;24.876;2023-02-19T10:31:03;99906.22;;;20.68;29.20
44839;BME280;30576;42.098;24.876;2023-02-19T10:33:29;99894.50;;;20.35;28.94
44839;BME280;30576;42.098;24.876;2023-02-19T10:38:28;99867.50;;;20.23;28.98
44839;BME280;30576;42.098;24.876;2023-02-19T10:43:31;99873.22;;;20.32;28.43
44839;BME280;30576;42.098;24.876;2023-02-19T10:46:05;99863.09;;;20.55;28.91
44839;BME280;30576;42.098;24.876;2023-02-19T10:48:44;99853.25;;;20.55;28.44
44839;BME280;30576;42.098;24.876;2023-02-19T10:51:11;99809.94;;;20.63;28.87
44839;BME280;30576;42.098;24.876;2023-02-19T10:53:50;99819.72;;;20.64;27.86
44839;BME280;30576;42.098;24.876;2023-02-19T10:56:26;99819.69;;;20.66;28.44
44839;BME280;30576;42.098;24.876;2023-02-19T10:58:54;99787.97;;;20.41;28.15
44839;BME280;30576;42.098;24.876;2023-02-19T11:01:20;99829.66;;;20.96;27.91
44839;BME280;30576;42.098;24.876;2023-02-19T11:03:50;99816.06;;;20.83;27.68
44839;BME280;30576;42.098;24.876;2023-02-19T11:06:19;99811.34;;;21.04;27.30
44839;BME280;30576;42.098;24.876;2023-02-19T11:08:52;99800.06;;;20.97;27.04
44839;BME280;30576;42.098;24.876;2023-02-19T11:11:24;99793.16;;;21.09;27.40
44839;BME280;30576;42.098;24.876;2023-02-19T11:13:52;99765.91;;;21.01;26.64
44839;BME280;30576;42.098;24.876;2023-02-19T11:16:18;99806.69;;;21.38;27.52
44839;BME280;30576;42.098;24.876;2023-02-19T11:18:43;99792.00;;;21.29;26.76
44839;BME280;30576;42.098;24.876;2023-02-19T11:21:24;99788.13;;;21.03;26.72
44839;BME280;30576;42.098;24.876;2023-02-19T11:23:53;99791.38;;;21.24;26.65
44839;BME280;30576;42.098;24.876;2023-02-19T11:26:22;99801.25;;;21.23;26.49
44839;BME280;30576;42.098;24.876;2023-02-19T11:28:59;99773.06;;;21.32;26.92
44839;BME280;30576;42.098;24.876;2023-02-19T11:31:30;99776.13;;;21.56;26.70
44839;BME280;30576;42.098;24.876;2023-02-19T11:34:24;99785.00;;;21.73;26.95
44839;BME280;30576;42.098;24.876;2023-02-19T11:37:16;99784.22;;;21.71;26.60
44839;BME280;30576;42.098;24.876;2023-02-19T11:39:44;99762.47;;;21.75;25.75
44839;BME280;30576;42.098;24.876;2023-02-19T12:26:07;99709.00;;;22.15;25.44
44839;BME280;30576;42.098;24.876;2023-02-19T12:42:05;99662.66;;;22.12;25.34
44839;BME280;30576;42.098;24.876;2023-02-19T12:44:50;99671.19;;;22.18;25.23
44839;BME280;30576;42.098;24.876;2023-02-19T12:47:24;99649.63;;;21.91;25.52
44839;BME280;30576;42.098;24.876;2023-02-19T12:50:07;99641.09;;;21.99;25.35
44839;BME280;30576;42.098;24.876;2023-02-19T12:52:42;99636.00;;;21.94;25.27
44839;BME280;30576;42.098;24.876;2023-02-19T12:55:21;99655.84;;;22.35;25.70
44839;BME280;30576;42.098;24.876;2023-02-19T12:57:46;99636.28;;;22.18;25.45
44839;BME280;30576;42.098;24.876;2023-02-19T13:00:34;99652.88;;;22.11;25.26
44839;BME280;30576;42.098;24.876;2023-02-19T13:03:12;99654.88;;;22.36;25.74
44839;BME280;30576;42.098;24.876;2023-02-19T13:06:05;99652.31;;;22.20;25.92
44839;BME280;30576;42.098;24.876;2023-02-19T13:08:41;99617.72;;;22.28;25.93
44839;BME280;30576;42.098;24.876;2023-02-19T13:13:41;99634.47;;;22.61;25.02
44839;BME280;30576;42.098;24.876;2023-02-19T13:16:11;99618.84;;;22.80;24.99
44839;BME280;30576;42.098;24.876;2023-02-19T13:18:46;99608.75;;;22.57;25.06
44839;BME280;30576;42.098;24.876;2023-02-19T13:21:16;99640.19;;;22.69;25.37
44839;BME280;30576;42.098;24.876;2023-02-19T13:24:12;99596.25;;;22.28;25.58
44839;BME280;30576;42.098;24.876;2023-02-19T13:27:23;99596.38;;;22.12;25.78
44839;BME280;30576;42.098;24.876;2023-02-19T13:35:30;99602.47;;;22.70;24.71
44839;BME280;30576;42.098;24.876;2023-02-19T13:38:03;99605.75;;;22.61;25.35
44839;BME280;30576;42.098;24.876;2023-02-19T13:40:32;99606.56;;;22.76;25.61
44839;BME280;30576;42.098;24.876;2023-02-19T13:43:03;99562.09;;;22.30;24.90
44839;BME280;30576;42.098;24.876;2023-02-19T13:45:44;99579.09;;;22.31;25.08
44839;BME280;30576;42.098;24.876;2023-02-19T13:48:24;99593.00;;;22.65;25.64
44839;BME280;30576;42.098;24.876;2023-02-19T13:53:56;99514.69;;;22.57;24.93
44839;BME280;30576;42.098;24.876;2023-02-19T14:04:44;99554.84;;;22.73;24.72
44839;BME280;30576;42.098;24.876;2023-02-19T14:14:21;99519.53;;;22.10;25.65
44839;BME280;30576;42.098;24.876;2023-02-19T14:17:41;99540.63;;;22.16;25.69
44839;BME280;30576;42.098;24.876;2023-02-19T14:27:42;99508.22;;;21.77;26.40
44839;BME280;30576;42.098;24.876;2023-02-19T14:33:44;99480.00;;;21.85;25.88
44839;BME280;30576;42.098;24.876;2023-02-19T14:36:22;99542.25;;;22.18;25.96
44839;BME280;30576;42.098;24.876;2023-02-19T14:41:37;99481.63;;;21.87;26.22
44839;BME280;30576;42.098;24.876;2023-02-19T14:44:05;99473.47;;;21.89;26.09
44839;BME280;30576;42.098;24.876;2023-02-19T14:47:13;99516.41;;;21.89;26.75
44839;BME280;30576;42.098;24.876;2023-02-19T14:49:45;99492.91;;;21.65;26.25
44839;BME280;30576;42.098;24.876;2023-02-19T14:52:35;99512.94;;;21.74;26.32
44839;BME280;30576;42.098;24.876;2023-02-19T14:57:43;99444.31;;;21.26;26.91
44839;BME280;30576;42.098;24.876;2023-02-19T15:00:49;99504.00;;;21.73;26.60
44839;BME280;30576;42.098;24.876;2023-02-19T15:03:47;99503.72;;;21.63;27.08
44839;BME280;30576;42.098;24.876;2023-02-19T15:06:14;99485.34;;;21.43;27.00
44839;BME280;30576;42.098;24.876;2023-02-19T15:08:44;99497.56;;;21.47;26.68
44839;BME280;30576;42.098;24.876;2023-02-19T15:11:17;99485.53;;;21.40;26.77
44839;BME280;30576;42.098;24.876;2023-02-19T15:13:50;99493.34;;;21.28;26.62
44839;BME280;30576;42.098;24.876;2023-02-19T15:16:18;99444.44;;;20.96;27.01
44839;BME280;30576;42.098;24.876;2023-02-19T15:18:45;99470.28;;;21.11;27.02